KRFD

Chicago / Rockford International Airport

Chicago/Rockford, Illinois, USA
METAR KRFD 202354Z 10006KT 7SM -TSRA FEW038 SCT047CB BKN110 OVC200 23/21 A2976 RMK AO2 LTG DSNT ALQDS RAB41 TSB17 SLP074 OCNL LTGIC W TS W MOV N P0000 60000 T02330211 10250 20217 56006
Observed Flight Rules
Aug-20 @ 23:54 UTC (16 minutes ago) Visual Flight Rules
Wind Visibility Clouds Conditions
100° at 6 knots 7 miles
  • Few at 3,800' AGL
  • Scattered at 4,700' AGL
  • Broken at 11,000' AGL
  • Overcast at 20,000' AGL
  • Light Thunderstorm
  • Light Rain
Temperatures Readings Precipitation
Current 23°C / 73°F
Dewpoint 21°C / 70°F
Humidity 89%
Altimeter 29.76" Hg
Pressure 1007.4 hPa
Elevation 221
Current Rain 0.005
METAR KRFD 202354Z 10006KT 7SM -TSRA FEW038 SCT047CB BKN110 OVC200 23/21 A2976 RMK AO2 LTG DSNT ALQDS RAB41 TSB17 SLP074 OCNL LTGIC W TS W MOV N P0000 60000 T02330211 10250 20217 56006
Observed Flight Rules
Aug-20 @ 23:54 UTC
(16 minutes ago)
VFR
Wind Visibility
100° at 6 knots 7 miles
Clouds
  • Few at 3,800' AGL
  • Scattered at 4,700' AGL
  • Broken at 11,000' AGL
  • Overcast at 20,000' AGL
Conditions
  • Light Thunderstorm
  • Light Rain
Temperature Dewpoint
23°C / 73°F 21°C / 70°F
Humidity Altimeter Pressure
89% 29.76" Hg 1007.4 hPa
Current Rain
0.005